createdAt,value
2023-05-10T04:26:02.600Z,98.77
2023-05-10T04:30:06.477Z,98.77
2023-05-10T04:34:09.194Z,100.00
2023-05-10T04:38:12.197Z,99.48
2023-05-10T04:42:16.130Z,96.56
2023-05-10T04:46:19.159Z,95.70
2023-05-10T04:50:21.857Z,94.24
2023-05-10T04:54:25.398Z,94.39
2023-05-10T04:58:28.031Z,94.74
2023-05-10T05:02:31.928Z,94.71
2023-05-10T05:06:34.617Z,95.79
2023-05-10T05:10:37.650Z,97.65
2023-05-10T05:14:40.416Z,98.41
2023-05-10T05:18:43.416Z,99.01
2023-05-10T05:22:46.284Z,98.35
2023-05-10T05:26:49.792Z,97.65
2023-05-10T05:30:52.616Z,97.18
2023-05-10T05:34:55.941Z,96.06
2023-05-10T05:38:58.829Z,95.89
2023-05-10T05:43:01.820Z,96.95
2023-05-10T05:47:04.718Z,94.09
2023-05-10T05:51:08.040Z,93.28
2023-05-10T05:55:14.076Z,91.48
2023-05-10T05:59:18.372Z,90.90
2023-05-10T06:03:22.294Z,89.95
2023-05-10T06:07:25.588Z,90.79
2023-05-10T06:11:28.355Z,87.65
2023-05-10T06:15:31.330Z,87.03
2023-05-10T06:19:34.030Z,87.95
2023-05-10T06:23:37.189Z,86.02
2023-05-10T06:27:39.829Z,86.54
2023-05-10T06:31:42.981Z,86.25
2023-05-10T06:35:45.715Z,83.92
2023-05-10T06:39:48.752Z,83.89
2023-05-10T06:43:51.581Z,83.60
2023-05-10T06:47:54.870Z,84.19
2023-05-10T06:51:58.475Z,80.76
2023-05-10T06:56:01.637Z,80.23
2023-05-10T07:00:05.973Z,79.06
2023-05-10T07:04:09.529Z,76.91
2023-05-10T07:08:12.279Z,78.15
2023-05-10T07:12:16.237Z,80.39
2023-05-10T07:16:20.370Z,81.92
2023-05-10T07:20:23.720Z,79.65
2023-05-10T07:24:26.731Z,77.84
2023-05-10T07:28:29.748Z,74.06
2023-05-10T07:32:32.892Z,75.32
2023-05-10T07:36:37.204Z,75.11
2023-05-10T07:40:48.924Z,74.85
2023-05-10T07:44:54.257Z,72.01
2023-05-10T07:48:57.054Z,73.23
2023-05-10T07:53:00.139Z,72.15
2023-05-10T07:57:02.896Z,70.58
2023-05-10T08:01:06.226Z,71.97
2023-05-10T08:05:10.791Z,71.32
2023-05-10T08:09:16.420Z,72.18
2023-05-10T08:13:20.728Z,69.52
2023-05-10T08:17:24.886Z,69.54
2023-05-10T08:21:29.193Z,71.37
2023-05-10T08:25:32.850Z,66.97
2023-05-10T08:29:48.959Z,67.54
2023-05-10T08:33:53.773Z,67.18
2023-05-10T08:37:56.813Z,65.98
2023-05-10T08:42:02.689Z,64.69
2023-05-10T08:46:06.468Z,64.53
2023-05-10T08:50:09.612Z,62.48
2023-05-10T08:54:12.963Z,60.45
2023-05-10T08:58:15.696Z,63.28
2023-05-10T09:02:19.550Z,61.90
2023-05-10T09:06:22.299Z,61.15
2023-05-10T09:10:27.998Z,56.81
2023-05-10T09:14:32.094Z,58.87
2023-05-10T09:18:35.275Z,58.47
2023-05-10T09:22:38.948Z,55.05
2023-05-10T09:26:49.597Z,56.20
2023-05-10T09:30:56.729Z,55.66
2023-05-10T09:35:07.086Z,55.36
2023-05-10T09:39:10.086Z,53.54
2023-05-10T09:43:35.917Z,54.47
2023-05-10T09:47:38.668Z,53.77
2023-05-10T09:51:45.916Z,51.85
2023-05-10T09:55:50.474Z,53.23
2023-05-10T09:59:55.439Z,52.20
2023-05-10T10:03:59.422Z,51.88
2023-05-10T10:08:05.091Z,49.97
2023-05-10T10:12:08.077Z,49.73
2023-05-10T10:16:11.506Z,49.92
2023-05-10T10:20:14.607Z,48.57
2023-05-10T10:24:17.936Z,45.86
2023-05-10T10:28:39.239Z,46.69
2023-05-10T10:33:30.190Z,46.55
2023-05-10T10:37:59.627Z,46.61
2023-05-10T10:42:06.618Z,43.67
2023-05-10T10:46:19.671Z,40.56
2023-05-10T10:50:29.744Z,40.75
2023-05-10T10:54:36.604Z,41.94
2023-05-10T10:58:42.999Z,42.38
2023-05-10T11:02:49.403Z,40.56
2023-05-10T11:07:12.702Z,41.44
2023-05-10T11:11:17.293Z,40.76
2023-05-10T11:15:21.849Z,40.33
2023-05-10T11:19:32.693Z,41.88
2023-05-10T11:23:53.603Z,44.28
2023-05-10T11:27:56.504Z,46.09
2023-05-10T11:32:01.301Z,45.23
2023-05-10T11:36:04.151Z,47.42
2023-05-10T11:40:07.813Z,42.71
2023-05-10T11:44:13.237Z,42.20
2023-05-10T11:48:18.226Z,43.59
2023-05-10T11:52:21.488Z,43.80
2023-05-10T11:56:24.728Z,44.64
2023-05-10T12:00:28.749Z,48.97
2023-05-10T12:04:32.467Z,46.19
2023-05-10T12:08:35.318Z,46.07
2023-05-10T12:12:39.747Z,44.58
2023-05-10T12:16:44.551Z,43.33
2023-05-10T12:20:48.178Z,43.58
2023-05-10T12:24:52.017Z,44.01
2023-05-10T12:29:12.326Z,43.52
2023-05-10T12:33:21.573Z,37.77
2023-05-10T12:37:29.497Z,41.31
2023-05-10T12:41:34.496Z,42.45
2023-05-10T12:45:37.680Z,41.93
2023-05-10T12:49:40.323Z,40.81
2023-05-10T12:53:46.127Z,42.47
2023-05-10T12:57:49.929Z,42.79
2023-05-10T13:01:55.185Z,42.02
2023-05-10T13:05:57.877Z,41.54
2023-05-10T13:10:00.893Z,40.17
2023-05-10T13:14:04.475Z,42.53
2023-05-10T13:18:07.614Z,42.17
2023-05-10T13:22:10.323Z,39.57
2023-05-10T13:26:13.325Z,38.04
2023-05-10T13:30:16.406Z,36.50
2023-05-10T13:34:21.714Z,36.76
2023-05-10T13:38:24.464Z,37.32
2023-05-10T13:42:28.257Z,34.78
2023-05-10T13:46:31.938Z,36.12
2023-05-10T13:50:35.058Z,36.27
2023-05-10T13:54:39.139Z,34.33
2023-05-10T13:58:42.473Z,34.52
2023-05-10T14:02:45.341Z,34.06
2023-05-10T14:06:48.460Z,35.48
2023-05-10T14:10:51.870Z,35.93
2023-05-10T14:14:54.826Z,37.83
2023-05-10T14:18:57.497Z,38.02
2023-05-10T14:23:01.246Z,37.24
2023-05-10T14:27:04.013Z,35.94
2023-05-10T14:31:07.315Z,34.33
2023-05-10T14:35:12.194Z,32.53
2023-05-10T14:39:16.740Z,34.29
2023-05-10T14:43:19.745Z,35.48
2023-05-10T14:47:22.766Z,35.40
2023-05-10T14:51:25.472Z,37.01
2023-05-10T14:55:28.500Z,35.97
2023-05-10T14:59:31.151Z,36.44
2023-05-10T15:03:34.654Z,38.19
2023-05-10T15:07:37.704Z,38.68
2023-05-10T15:11:40.702Z,39.53
2023-05-10T15:15:43.720Z,39.39
2023-05-10T15:19:46.789Z,37.57
2023-05-10T20:46:48.743Z,63.92
2023-05-10T20:50:51.940Z,63.92
2023-05-10T20:54:54.654Z,66.11
2023-05-10T20:58:57.768Z,66.58
2023-05-10T21:03:00.670Z,66.25
2023-05-10T21:41:48.612Z,66.73
2023-05-10T21:45:51.691Z,66.73
2023-05-10T21:49:54.304Z,68.26
2023-05-10T21:53:57.304Z,69.93
2023-05-10T21:57:59.881Z,68.56
2023-05-10T22:02:02.995Z,69.25
2023-05-10T22:06:06.453Z,69.68
2023-05-10T22:10:09.941Z,70.67
2023-05-10T22:14:12.949Z,71.80
2023-05-10T22:18:15.724Z,72.05
2023-05-10T22:22:18.733Z,73.52
2023-05-10T22:26:22.332Z,73.57
2023-05-10T22:30:25.438Z,73.56
2023-05-10T22:34:28.073Z,73.74
2023-05-10T22:38:30.976Z,73.81
2023-05-10T22:42:33.971Z,74.37
2023-05-10T22:46:37.536Z,73.36
2023-05-10T22:50:40.218Z,72.30
2023-05-10T22:54:44.405Z,71.13
2023-05-10T22:58:47.019Z,71.12
2023-05-10T23:02:50.109Z,70.92
2023-05-10T23:06:53.740Z,72.50
2023-05-10T23:10:56.994Z,71.67
